Oak Grove, Arkansas
Current Conditions -  °F | °C
As of 5:45 PM on Wednesday 26 Nov 2014 (Local Time) from KBBG Reporting Station
Scattered Clouds Scattered Clouds  
Wind Chill: 32°   Ceiling: Unl
Heat Index: 41°   Visibility: 10mi
Dew Point: 25°   Wind: 17mph
Humidity: 53%   Direction: 310°NW
Pressure: 30.12"   Gusts: 26mph
Location:  36.46°N, 93.44°W
Report Text: KBBG 262345Z 31015G23KT 10SM SCT060 05/M04 A3012
Loading
Personal Weather Stations






























Interactive Weather Map New forecast layout! Learn more

10-Day Weather Forecast

Advertisements
Track Severe Weather on mobile